Time;durP1;ratioP1;P1;durP2;ratioP2;P2;SDS_P1;SDS_P2;PMS_P1;PMS_P2;Temp;Humidity;BMP_temperature;BMP_pressure;BME280_temperature;BME280_humidity;BME280_pressure;Samples;Min_cycle;Max_cycle;Signal;HPM_P1;HPM_P2
2023/04/25 00:01:52;;;;;;;0.50;0.50;;;23.00;58.20;;;;;;5029381;28;20460;-76
2023/04/25 00:04:21;;;;;;;0.60;0.60;;;23.10;58.20;;;;;;5017521;28;20472;-76
2023/04/25 00:06:50;;;;;;;0.60;0.60;;;23.10;58.20;;;;;;5023516;28;20502;-76
2023/04/25 00:09:18;;;;;;;0.63;0.57;;;23.00;58.10;;;;;;5032074;28;20468;-76
2023/04/25 00:11:47;;;;;;;0.60;0.60;;;23.10;58.10;;;;;;5014477;28;20507;-76
2023/04/25 00:14:16;;;;;;;0.50;0.50;;;23.00;58.10;;;;;;5031880;28;20447;-74
2023/04/25 00:16:44;;;;;;;0.60;0.60;;;23.00;58.10;;;;;;5027810;28;20983;-76
2023/04/25 00:19:13;;;;;;;0.63;0.63;;;23.00;58.10;;;;;;5024696;28;20478;-76
2023/04/25 00:21:41;;;;;;;0.60;0.60;;;23.00;58.10;;;;;;5030664;28;20452;-75
2023/04/25 00:24:09;;;;;;;0.60;0.40;;;23.00;58.10;;;;;;5030802;28;20463;-76
2023/04/25 00:26:37;;;;;;;0.63;0.63;;;23.10;58.10;;;;;;5031615;28;20448;-77
2023/04/25 00:29:07;;;;;;;0.50;0.50;;;23.10;58.10;;;;;;5012788;28;20541;-78
2023/04/25 00:31:36;;;;;;;0.43;0.40;;;23.00;58.10;;;;;;5024813;28;20460;-78
2023/04/25 00:34:04;;;;;;;0.50;0.50;;;23.00;58.10;;;;;;5028406;28;20457;-74
2023/04/25 00:36:32;;;;;;;0.40;0.40;;;23.00;58.10;;;;;;5030395;28;20452;-78
2023/04/25 00:39:00;;;;;;;0.53;0.53;;;23.00;58.10;;;;;;5031970;28;20471;-79
2023/04/25 00:41:30;;;;;;;0.57;0.57;;;23.00;58.10;;;;;;5011033;28;20453;-78
2023/04/25 00:44:01;;;;;;;0.60;0.60;;;23.00;58.10;;;;;;5027625;28;20525;-78
2023/04/25 00:46:32;;;;;;;0.60;0.60;;;23.00;58.20;;;;;;5022877;28;20513;-78
2023/04/25 00:49:00;;;;;;;0.57;0.57;;;23.00;58.20;;;;;;5011728;28;20559;-79
2023/04/25 00:51:28;;;;;;;0.63;0.60;;;23.00;58.10;;;;;;5030023;28;20934;-78
2023/04/25 00:53:57;;;;;;;0.50;0.50;;;23.00;58.20;;;;;;5023025;28;20523;-77
2023/04/25 00:56:25;;;;;;;0.70;0.70;;;23.00;58.20;;;;;;5011147;28;21020;-76
2023/04/25 00:58:55;;;;;;;0.73;0.70;;;23.00;58.20;;;;;;5023588;28;20904;-76
2023/04/25 01:01:23;;;;;;;0.50;0.40;;;22.90;58.20;;;;;;5004022;28;20550;-77
2023/04/25 01:03:55;;;;;;;0.43;0.43;;;22.90;58.20;;;;;;5031230;28;20531;-76
2023/04/25 01:06:24;;;;;;;0.60;0.60;;;22.90;58.20;;;;;;5029838;28;20439;-74
2023/04/25 01:08:52;;;;;;;0.80;0.67;;;22.90;58.20;;;;;;5029992;28;20554;-74
2023/04/25 01:11:21;;;;;;;0.60;0.60;;;22.90;58.20;;;;;;5030244;28;21050;-76
2023/04/25 01:13:50;;;;;;;0.60;0.57;;;22.90;58.20;;;;;;5028546;28;20494;-76
2023/04/25 01:16:18;;;;;;;0.60;0.60;;;22.90;58.20;;;;;;5028669;28;20502;-76
2023/04/25 01:18:47;;;;;;;0.70;0.60;;;22.90;58.20;;;;;;5010905;28;20798;-76
2023/04/25 01:21:17;;;;;;;0.50;0.40;;;22.90;58.20;;;;;;5006997;28;20475;-78
2023/04/25 01:23:48;;;;;;;0.77;0.77;;;22.90;58.20;;;;;;5013228;28;20452;-77
2023/04/25 01:26:17;;;;;;;0.57;0.57;;;22.90;58.20;;;;;;5030570;28;20459;-73
2023/04/25 01:28:45;;;;;;;1.80;0.60;;;22.90;58.20;;;;;;5004375;28;20459;-76
2023/04/25 01:31:15;;;;;;;0.57;0.57;;;22.90;58.20;;;;;;5013196;28;20483;-75
2023/04/25 01:33:44;;;;;;;0.63;0.63;;;22.90;58.20;;;;;;5010739;28;20471;-77
2023/04/25 01:36:14;;;;;;;0.60;0.60;;;22.90;58.10;;;;;;5028603;28;20474;-77
2023/04/25 01:38:43;;;;;;;0.90;0.60;;;22.90;58.10;;;;;;5030037;28;20518;-75
2023/04/25 01:41:12;;;;;;;0.93;0.60;;;22.90;58.20;;;;;;5030532;28;20489;-77
2023/04/25 01:43:40;;;;;;;0.80;0.70;;;22.90;58.10;;;;;;5012550;28;20534;-74
2023/04/25 01:46:09;;;;;;;0.60;0.60;;;22.80;57.80;;;;;;5018611;28;20474;-77
2023/04/25 01:48:37;;;;;;;0.60;0.60;;;22.80;57.90;;;;;;5018308;28;20463;-77
2023/04/25 01:51:05;;;;;;;0.70;0.70;;;22.80;57.90;;;;;;5013150;28;20840;-77
2023/04/25 01:53:34;;;;;;;0.53;0.53;;;22.80;57.90;;;;;;5012584;28;20483;-78
2023/04/25 01:56:06;;;;;;;0.80;0.70;;;22.80;58.00;;;;;;5011932;28;20966;-75
2023/04/25 01:58:36;;;;;;;0.73;0.73;;;22.80;57.90;;;;;;5013176;28;20536;-77
2023/04/25 02:01:07;;;;;;;0.70;0.70;;;22.80;58.00;;;;;;5016589;28;20476;-78
2023/04/25 02:03:43;;;;;;;0.87;0.70;;;22.70;58.20;;;;;;5009841;28;20482;-77
2023/04/25 02:06:20;;;;;;;1.03;0.90;;;22.70;58.20;;;;;;5011061;28;20454;-73
2023/04/25 02:08:50;;;;;;;0.60;0.60;;;22.80;58.20;;;;;;5013153;28;20451;-77
2023/04/25 02:11:20;;;;;;;0.67;0.67;;;22.80;58.30;;;;;;5028936;28;20440;-75
2023/04/25 02:13:57;;;;;;;0.50;0.50;;;22.70;58.40;;;;;;5011975;28;20463;-77
2023/04/25 02:16:43;;;;;;;0.60;0.60;;;22.80;58.30;;;;;;5030735;28;20986;-78
2023/04/25 02:19:12;;;;;;;1.63;0.70;;;22.70;58.40;;;;;;5008871;28;20456;-77
2023/04/25 02:21:40;;;;;;;0.53;0.53;;;22.70;58.40;;;;;;5010365;28;20478;-73
2023/04/25 02:24:09;;;;;;;0.73;0.60;;;22.70;58.40;;;;;;5014493;28;20546;-77
2023/04/25 02:26:38;;;;;;;0.70;0.70;;;22.70;58.40;;;;;;5015065;28;20478;-78
2023/04/25 02:29:09;;;;;;;0.60;0.60;;;22.70;58.40;;;;;;5013659;28;20498;-77
2023/04/25 02:31:38;;;;;;;0.67;0.60;;;22.70;58.40;;;;;;5015981;28;20476;-79
2023/04/25 02:34:06;;;;;;;0.60;0.60;;;22.70;58.40;;;;;;5013361;28;20475;-78
2023/04/25 02:36:36;;;;;;;0.60;0.60;;;22.70;58.40;;;;;;5015405;28;20463;-78
2023/04/25 02:39:04;;;;;;;0.67;0.53;;;22.70;58.40;;;;;;5031889;28;20861;-78
2023/04/25 02:41:33;;;;;;;0.93;0.87;;;22.70;58.40;;;;;;5015517;28;20926;-77
2023/04/25 02:44:02;;;;;;;0.63;0.63;;;22.70;58.40;;;;;;5033719;28;20490;-77
2023/04/25 02:46:30;;;;;;;0.50;0.40;;;22.70;58.40;;;;;;5009938;28;20501;-79
2023/04/25 02:49:06;;;;;;;0.70;0.70;;;22.70;58.40;;;;;;5006449;28;20448;-79
2023/04/25 02:51:35;;;;;;;0.60;0.60;;;22.70;58.40;;;;;;5015403;28;20555;-75
2023/04/25 02:54:04;;;;;;;0.70;0.60;;;22.70;58.40;;;;;;5031645;28;20522;-78
2023/04/25 02:56:38;;;;;;;0.57;0.57;;;22.70;58.40;;;;;;5004569;28;20464;-78
2023/04/25 02:59:13;;;;;;;0.50;0.50;;;22.70;58.40;;;;;;5012688;28;21004;-78
2023/04/25 03:01:41;;;;;;;0.50;0.50;;;22.70;58.40;;;;;;5011913;28;20480;-78
2023/04/25 03:04:09;;;;;;;0.60;0.60;;;22.70;58.40;;;;;;5013291;28;20495;-78
2023/04/25 03:06:37;;;;;;;0.53;0.53;;;22.70;58.40;;;;;;4995843;28;20496;-77
2023/04/25 03:09:06;;;;;;;0.83;0.80;;;22.70;58.40;;;;;;5026314;28;20452;-74
2023/04/25 03:11:34;;;;;;;0.40;0.40;;;22.70;58.40;;;;;;5029920;28;20529;-75
2023/04/25 03:14:02;;;;;;;0.83;0.83;;;22.70;58.40;;;;;;5014248;28;20938;-77
2023/04/25 03:16:32;;;;;;;0.70;0.70;;;22.70;58.40;;;;;;5013908;28;20548;-76
2023/04/25 03:19:00;;;;;;;0.80;0.80;;;22.70;58.40;;;;;;5039097;28;20946;-77
2023/04/25 03:21:29;;;;;;;0.60;0.60;;;22.70;58.40;;;;;;5014122;28;20503;-75
2023/04/25 03:23:59;;;;;;;0.67;0.60;;;22.70;58.40;;;;;;5014999;28;20460;-77
2023/04/25 03:26:27;;;;;;;0.70;0.70;;;22.70;58.40;;;;;;5010066;28;20473;-78
2023/04/25 03:28:55;;;;;;;0.50;0.50;;;22.60;58.40;;;;;;5010245;28;20975;-77
2023/04/25 03:31:24;;;;;;;0.60;0.57;;;22.70;58.40;;;;;;5008869;28;20475;-76
2023/04/25 03:33:53;;;;;;;0.70;0.60;;;22.60;58.40;;;;;;5014714;28;20477;-77
2023/04/25 03:36:23;;;;;;;0.50;0.50;;;22.60;58.40;;;;;;5028480;28;20955;-74
2023/04/25 03:38:51;;;;;;;0.57;0.50;;;22.60;58.40;;;;;;5032219;28;20857;-77
2023/04/25 03:41:21;;;;;;;0.80;0.80;;;22.60;58.40;;;;;;5014601;28;20471;-75
2023/04/25 03:43:54;;;;;;;1.23;0.70;;;22.60;58.40;;;;;;5013237;28;21024;-75
2023/04/25 03:46:22;;;;;;;0.60;0.60;;;22.60;58.40;;;;;;5010046;28;20456;-72
2023/04/25 03:48:50;;;;;;;0.77;0.77;;;22.60;58.40;;;;;;5014930;28;20451;-74
2023/04/25 03:51:24;;;;;;;0.57;0.57;;;22.60;58.40;;;;;;5012454;28;20559;-72
2023/04/25 03:53:53;;;;;;;0.50;0.50;;;22.70;58.40;;;;;;5014677;28;20546;-73
2023/04/25 03:56:41;;;;;;;0.60;0.60;;;22.70;58.40;;;;;;5020128;28;20468;-73
2023/04/25 03:59:18;;;;;;;0.50;0.50;;;22.70;58.40;;;;;;5014076;28;20850;-75
2023/04/25 04:01:46;;;;;;;0.57;0.57;;;22.70;58.30;;;;;;5039835;28;20480;-73
2023/04/25 04:04:14;;;;;;;0.77;0.77;;;22.80;58.40;;;;;;5010467;28;20464;-76
2023/04/25 04:06:46;;;;;;;0.67;0.67;;;22.80;58.10;;;;;;5000258;28;20469;-75
2023/04/25 04:09:20;;;;;;;0.70;0.70;;;22.90;58.30;;;;;;5011654;28;20821;-75
2023/04/25 04:11:48;;;;;;;0.70;0.70;;;22.90;58.10;;;;;;5009438;28;20452;-78
2023/04/25 04:14:16;;;;;;;0.70;0.70;;;23.00;58.00;;;;;;5021092;28;20464;-75
2023/04/25 04:16:47;;;;;;;0.50;0.50;;;23.00;57.90;;;;;;5001298;28;20491;-79
2023/04/25 04:19:15;;;;;;;0.70;0.70;;;23.10;58.00;;;;;;5006761;28;20468;-78
2023/04/25 04:21:59;;;;;;;0.60;0.60;;;23.10;57.80;;;;;;5012457;28;20482;-79
2023/04/25 04:24:27;;;;;;;0.70;0.70;;;23.10;57.90;;;;;;5029279;28;20495;-79
2023/04/25 04:27:01;;;;;;;0.73;0.70;;;23.10;57.70;;;;;;5000201;28;20469;-79
2023/04/25 04:29:34;;;;;;;0.60;0.60;;;23.10;57.70;;;;;;5040175;28;20457;-75
2023/04/25 04:32:17;;;;;;;0.60;0.60;;;23.10;57.40;;;;;;5027526;28;20466;-79
2023/04/25 04:34:47;;;;;;;0.97;0.60;;;23.10;57.70;;;;;;5029259;28;20952;-79
2023/04/25 04:37:18;;;;;;;0.80;0.80;;;23.10;57.80;;;;;;5002645;28;20469;-79
2023/04/25 04:39:46;;;;;;;0.57;0.50;;;23.10;57.70;;;;;;5018210;28;20464;-78
2023/04/25 04:42:36;;;;;;;0.60;0.60;;;23.10;57.80;;;;;;5010944;28;20987;-80
2023/04/25 04:45:27;;;;;;;0.60;0.53;;;23.10;57.80;;;;;;4992229;28;20950;-79
2023/04/25 04:48:11;;;;;;;0.60;0.60;;;23.00;57.80;;;;;;5004547;28;20460;-78
2023/04/25 04:50:56;;;;;;;0.50;0.50;;;23.00;57.90;;;;;;5012372;28;20475;-78
2023/04/25 04:53:44;;;;;;;1.80;0.80;;;23.00;57.90;;;;;;5023132;28;20595;-78
2023/04/25 04:56:31;;;;;;;1.33;0.60;;;23.00;58.00;;;;;;4999936;28;20810;-81
2023/04/25 04:59:35;;;;;;;0.60;0.60;;;22.90;58.00;;;;;;5020739;28;21382;-81
2023/04/25 05:02:22;;;;;;;1.10;1.00;;;22.90;58.10;;;;;;5009847;28;20541;-80
2023/04/25 05:05:10;;;;;;;0.80;0.80;;;22.90;58.00;;;;;;5025641;28;20452;-81
2023/04/25 05:08:17;;;;;;;0.70;0.70;;;22.80;57.90;;;;;;5015467;28;20459;-75
2023/04/25 05:10:55;;;;;;;0.70;0.70;;;22.80;58.10;;;;;;5027269;28;20966;-73
2023/04/25 05:13:33;;;;;;;0.60;0.60;;;22.80;58.10;;;;;;5012725;28;20497;-80
2023/04/25 05:16:14;;;;;;;0.70;0.70;;;22.80;57.80;;;;;;5007864;28;20459;-75
2023/04/25 05:18:57;;;;;;;0.90;0.90;;;22.80;58.00;;;;;;5029971;28;20466;-79
2023/04/25 05:21:36;;;;;;;0.60;0.60;;;22.70;57.80;;;;;;5026861;28;20451;-78
2023/04/25 05:24:24;;;;;;;0.67;0.67;;;22.70;58.00;;;;;;5010715;28;20495;-74
2023/04/25 05:27:22;;;;;;;1.00;0.97;;;22.70;58.10;;;;;;4971684;28;20463;-75
2023/04/25 05:30:13;;;;;;;0.70;0.63;;;22.70;58.30;;;;;;5026888;28;20867;-77
2023/04/25 05:33:14;;;;;;;0.63;0.63;;;22.70;58.30;;;;;;4983513;28;20467;-77
2023/04/25 05:35:43;;;;;;;0.90;0.60;;;22.70;58.10;;;;;;5006934;28;21023;-76
2023/04/25 05:38:12;;;;;;;0.60;0.50;;;22.70;58.30;;;;;;5012002;28;20484;-78
2023/04/25 05:41:07;;;;;;;1.03;0.93;;;22.70;58.40;;;;;;5021013;28;20461;-77
2023/04/25 05:43:50;;;;;;;0.53;0.53;;;22.70;58.40;;;;;;4994501;28;20486;-74
2023/04/25 05:46:25;;;;;;;0.70;0.70;;;22.70;58.20;;;;;;5023884;28;20471;-72
2023/04/25 05:49:14;;;;;;;0.83;0.70;;;22.70;58.30;;;;;;5012612;28;20462;-74
2023/04/25 05:52:02;;;;;;;0.43;0.43;;;22.70;58.20;;;;;;5004441;28;20464;-75
2023/04/25 05:54:49;;;;;;;0.60;0.60;;;22.70;58.40;;;;;;5024645;28;20494;-76
2023/04/25 05:57:24;;;;;;;0.60;0.60;;;22.70;58.40;;;;;;5002435;28;20472;-75
2023/04/25 05:59:55;;;;;;;0.70;0.70;;;22.70;58.20;;;;;;5009359;28;20463;-76
2023/04/25 06:02:28;;;;;;;0.90;0.90;;;22.80;58.30;;;;;;5010758;28;20934;-75
2023/04/25 06:04:56;;;;;;;0.70;0.70;;;22.80;58.20;;;;;;5014795;28;20521;-74
2023/04/25 06:07:25;;;;;;;1.00;0.50;;;22.80;58.20;;;;;;5025486;28;20478;-74
2023/04/25 06:09:53;;;;;;;0.40;0.40;;;22.80;58.20;;;;;;5008750;28;20559;-73
2023/04/25 06:12:21;;;;;;;0.80;0.70;;;22.80;58.20;;;;;;5008433;28;20495;-74
2023/04/25 06:14:50;;;;;;;0.60;0.50;;;22.80;58.10;;;;;;5017986;28;20880;-74
2023/04/25 06:17:20;;;;;;;0.70;0.70;;;22.90;58.10;;;;;;5015549;28;20945;-76
2023/04/25 06:19:50;;;;;;;0.80;0.70;;;22.90;58.10;;;;;;5004455;28;20507;-75
2023/04/25 06:22:19;;;;;;;0.70;0.70;;;22.90;58.00;;;;;;5004216;28;20487;-77
2023/04/25 06:24:47;;;;;;;0.80;0.70;;;22.90;58.00;;;;;;5013545;28;20478;-76
2023/04/25 06:27:15;;;;;;;0.73;0.70;;;22.90;58.00;;;;;;5006933;28;20463;-76
2023/04/25 06:29:44;;;;;;;0.70;0.70;;;22.90;58.00;;;;;;5028583;28;20459;-74
2023/04/25 06:32:12;;;;;;;0.60;0.60;;;22.90;58.00;;;;;;5013571;28;20471;-77
2023/04/25 06:34:42;;;;;;;0.70;0.70;;;22.90;58.00;;;;;;5010801;28;21022;-73
2023/04/25 06:37:10;;;;;;;0.80;0.80;;;22.90;57.90;;;;;;5009172;28;20465;-76
2023/04/25 06:39:39;;;;;;;0.83;0.80;;;22.90;57.90;;;;;;5017588;28;20547;-76
2023/04/25 06:42:08;;;;;;;1.00;0.90;;;22.90;57.90;;;;;;5006967;28;21021;-76
2023/04/25 06:44:50;;;;;;;0.70;0.70;;;22.90;57.70;;;;;;5010139;28;20654;-75
2023/04/25 06:47:20;;;;;;;0.63;0.63;;;22.90;58.00;;;;;;5008347;28;21066;-76
2023/04/25 06:49:51;;;;;;;0.60;0.60;;;22.90;57.90;;;;;;5012104;28;20472;-77
2023/04/25 06:52:20;;;;;;;0.60;0.60;;;22.90;58.00;;;;;;5012407;28;20456;-77
2023/04/25 06:54:49;;;;;;;0.60;0.60;;;22.90;58.00;;;;;;5003244;28;20478;-76
2023/04/25 06:57:51;;;;;;;1.00;0.80;;;22.90;57.90;;;;;;5015082;28;21562;-76
2023/04/25 07:00:42;;;;;;;0.80;0.80;;;22.90;58.00;;;;;;5033670;28;20467;-77
2023/04/25 07:03:10;;;;;;;0.83;0.70;;;22.90;57.80;;;;;;5010191;28;20522;-77
2023/04/25 07:05:40;;;;;;;0.50;0.50;;;22.90;57.80;;;;;;5030624;28;20454;-77
2023/04/25 07:08:08;;;;;;;0.60;0.60;;;22.90;57.80;;;;;;5014017;28;20471;-77
2023/04/25 07:10:38;;;;;;;0.73;0.60;;;22.90;57.90;;;;;;5015183;28;20448;-76
2023/04/25 07:13:06;;;;;;;0.97;0.97;;;22.90;57.80;;;;;;5014891;28;20484;-76
2023/04/25 07:15:34;;;;;;;0.50;0.50;;;23.00;57.70;;;;;;5022184;28;20879;-76
2023/04/25 07:18:03;;;;;;;0.60;0.60;;;23.00;57.80;;;;;;5014363;28;20469;-76
2023/04/25 07:20:32;;;;;;;0.60;0.60;;;23.00;57.70;;;;;;5010173;28;20524;-77
2023/04/25 07:23:02;;;;;;;0.80;0.80;;;23.00;57.70;;;;;;5013158;28;20494;-76
2023/04/25 07:25:31;;;;;;;0.50;0.50;;;23.00;57.60;;;;;;5014402;28;20463;-77
2023/04/25 07:27:59;;;;;;;0.80;0.60;;;23.00;57.70;;;;;;5013671;28;20531;-77
2023/04/25 07:30:27;;;;;;;0.50;0.50;;;23.00;57.70;;;;;;5011137;28;20463;-76
2023/04/25 07:32:56;;;;;;;0.70;0.70;;;23.00;57.70;;;;;;5014101;28;20441;-77
2023/04/25 07:35:25;;;;;;;0.60;0.60;;;23.00;57.70;;;;;;5019474;28;20877;-75
2023/04/25 07:37:53;;;;;;;0.70;0.67;;;23.00;57.70;;;;;;5033377;28;20876;-76
2023/04/25 07:40:22;;;;;;;0.73;0.67;;;23.00;57.70;;;;;;5011630;28;20974;-77
2023/04/25 07:42:55;;;;;;;0.70;0.70;;;22.90;57.70;;;;;;4997096;28;20951;-75
2023/04/25 07:45:32;;;;;;;1.17;0.70;;;23.00;57.70;;;;;;5007757;28;20454;-77
2023/04/25 07:48:00;;;;;;;0.73;0.73;;;23.00;57.70;;;;;;5012626;28;20488;-72
2023/04/25 07:50:30;;;;;;;0.70;0.70;;;23.00;57.70;;;;;;5021712;28;20471;-77
2023/04/25 07:52:59;;;;;;;0.90;0.90;;;23.00;57.60;;;;;;5030104;28;20487;-76
2023/04/25 07:55:36;;;;;;;1.50;0.90;;;23.00;57.70;;;;;;5019069;28;20610;-79
2023/04/25 07:58:10;;;;;;;2.30;1.30;;;23.00;57.70;;;;;;5013332;28;20960;-80
2023/04/25 08:00:41;;;;;;;1.97;1.87;;;23.00;57.80;;;;;;5021040;28;20803;-81
2023/04/25 08:03:41;;;;;;;2.63;1.80;;;23.00;57.80;;;;;;5012520;28;20473;-82
2023/04/25 08:06:17;;;;;;;2.10;1.60;;;23.00;57.80;;;;;;5020628;28;20802;-80
2023/04/25 08:08:57;;;;;;;1.60;1.40;;;23.00;57.80;;;;;;5003262;28;20483;-80
2023/04/25 08:11:34;;;;;;;2.33;1.73;;;23.00;57.80;;;;;;5013820;28;20459;-81
2023/04/25 08:14:03;;;;;;;1.70;1.60;;;23.10;57.80;;;;;;5014847;28;20960;-79
2023/04/25 08:16:31;;;;;;;1.57;1.30;;;23.10;57.80;;;;;;5031599;28;20448;-79
2023/04/25 08:19:00;;;;;;;1.93;1.77;;;23.10;57.80;;;;;;5013828;28;20526;-77
2023/04/25 08:21:28;;;;;;;1.60;1.50;;;23.10;57.80;;;;;;5010571;28;20476;-77
2023/04/25 08:23:59;;;;;;;3.43;1.77;;;23.10;57.80;;;;;;5013474;28;20488;-76
2023/04/25 08:26:31;;;;;;;2.10;1.90;;;23.10;57.80;;;;;;5010575;28;20492;-77
2023/04/25 08:29:01;;;;;;;1.77;1.67;;;23.10;57.80;;;;;;5022322;28;20453;-79
2023/04/25 08:31:29;;;;;;;2.40;1.77;;;23.20;57.70;;;;;;5030948;28;20502;-78
2023/04/25 08:34:00;;;;;;;2.00;1.90;;;23.20;57.70;;;;;;5014147;28;20876;-81
2023/04/25 08:36:39;;;;;;;1.73;1.53;;;23.20;57.70;;;;;;5010675;28;20468;-78
2023/04/25 08:39:31;;;;;;;1.77;1.67;;;23.20;57.60;;;;;;5020301;28;20452;-77
2023/04/25 08:42:19;;;;;;;1.90;1.80;;;23.20;57.60;;;;;;5025717;28;20457;-79
2023/04/25 08:44:49;;;;;;;1.87;1.77;;;23.30;57.60;;;;;;5038785;28;20500;-77
2023/04/25 08:47:22;;;;;;;1.67;1.57;;;23.30;57.60;;;;;;5014711;28;20551;-78
2023/04/25 08:49:56;;;;;;;1.60;1.50;;;23.30;57.60;;;;;;5018495;28;20985;-79
2023/04/25 08:52:28;;;;;;;2.60;1.93;;;23.30;57.50;;;;;;5019114;28;20492;-78
2023/04/25 08:54:58;;;;;;;1.80;1.70;;;23.30;57.50;;;;;;5012187;28;20503;-76
2023/04/25 08:57:30;;;;;;;2.67;2.10;;;23.30;57.40;;;;;;5014056;28;20502;-79
2023/04/25 09:00:02;;;;;;;1.60;1.50;;;23.30;57.50;;;;;;5017132;28;20452;-80
2023/04/25 09:02:34;;;;;;;2.43;1.70;;;23.30;57.50;;;;;;5046021;28;20482;-80
2023/04/25 09:05:04;;;;;;;2.57;1.53;;;23.30;57.40;;;;;;5027860;28;20476;-77
2023/04/25 09:07:33;;;;;;;2.10;1.90;;;23.30;57.40;;;;;;5002936;28;20468;-79
2023/04/25 09:10:03;;;;;;;2.10;1.67;;;23.30;57.40;;;;;;5033015;28;20447;-78
2023/04/25 09:12:36;;;;;;;1.83;1.73;;;23.30;57.40;;;;;;5010349;28;20479;-79
2023/04/25 09:15:09;;;;;;;2.10;1.90;;;23.40;57.40;;;;;;5013078;28;20460;-75
2023/04/25 09:18:07;;;;;;;2.10;2.00;;;23.30;57.30;;;;;;5020173;28;20478;-79
2023/04/25 09:20:43;;;;;;;1.90;1.80;;;23.40;57.30;;;;;;5017319;28;20456;-78
2023/04/25 09:23:30;;;;;;;2.60;2.03;;;23.40;57.20;;;;;;5012351;28;20460;-80
2023/04/25 09:25:58;;;;;;;2.20;2.00;;;23.30;57.20;;;;;;5004687;28;20474;-80
2023/04/25 09:28:27;;;;;;;1.77;1.67;;;23.30;57.30;;;;;;5011589;28;20469;-78
2023/04/25 09:31:00;;;;;;;2.13;1.93;;;23.30;57.30;;;;;;5013831;28;20468;-81
2023/04/25 09:33:36;;;;;;;2.10;1.93;;;23.30;57.40;;;;;;5009215;28;20514;-77
2023/04/25 09:36:08;;;;;;;1.67;1.57;;;23.30;57.40;;;;;;5024150;28;20874;-78
2023/04/25 09:39:16;;;;;;;8.73;2.17;;;23.40;57.40;;;;;;4998601;28;20976;-78
2023/04/25 09:41:54;;;;;;;2.57;2.10;;;23.40;57.40;;;;;;5012186;28;20461;-80
2023/04/25 09:44:24;;;;;;;1.90;1.80;;;23.30;57.30;;;;;;5013306;28;20480;-81
2023/04/25 09:46:55;;;;;;;2.47;1.90;;;23.30;57.30;;;;;;5020305;28;20485;-76
2023/04/25 09:49:27;;;;;;;1.80;1.70;;;23.30;57.30;;;;;;4992810;28;21776;-78
2023/04/25 09:52:05;;;;;;;2.10;1.90;;;23.30;57.40;;;;;;5011186;28;20476;-81
2023/04/25 09:54:43;;;;;;;2.70;2.30;;;23.30;57.40;;;;;;5011201;28;20791;-78
2023/04/25 09:57:17;;;;;;;2.00;1.83;;;23.30;57.40;;;;;;5014646;28;20953;-77
2023/04/25 09:59:46;;;;;;;3.20;2.13;;;23.30;57.40;;;;;;5009722;28;20891;-81
2023/04/25 10:02:19;;;;;;;4.20;1.67;;;23.30;57.40;;;;;;5012167;28;20458;-79
2023/04/25 10:04:52;;;;;;;3.83;2.20;;;23.30;57.30;;;;;;5011380;28;20483;-78
2023/04/25 10:07:37;;;;;;;1.70;1.60;;;23.30;57.40;;;;;;5009957;28;20461;-77
2023/04/25 10:10:13;;;;;;;2.17;2.07;;;23.30;57.50;;;;;;5008940;28;20465;-76
2023/04/25 10:12:43;;;;;;;2.50;2.10;;;23.30;57.60;;;;;;5008612;28;20480;-77
2023/04/25 10:15:13;;;;;;;2.23;1.83;;;23.30;57.60;;;;;;5009140;28;20457;-74
2023/04/25 10:17:43;;;;;;;2.23;2.07;;;23.30;57.60;;;;;;5006991;28;20547;-75
2023/04/25 10:20:12;;;;;;;2.70;1.80;;;23.30;57.60;;;;;;5002123;28;20466;-74
2023/04/25 10:22:43;;;;;;;1.83;1.73;;;23.30;57.60;;;;;;5011900;28;20463;-77
2023/04/25 10:25:12;;;;;;;2.00;1.80;;;23.30;57.70;;;;;;5013174;28;20469;-79
2023/04/25 10:27:40;;;;;;;1.77;1.67;;;23.20;57.70;;;;;;5006728;28;20553;-77
2023/04/25 10:30:12;;;;;;;1.80;1.70;;;23.20;57.60;;;;;;5006386;28;20453;-79
2023/04/25 10:32:42;;;;;;;2.33;2.13;;;23.20;57.60;;;;;;5014021;28;20453;-79
2023/04/25 10:35:16;;;;;;;2.17;1.63;;;23.20;57.60;;;;;;5013478;28;20453;-79
2023/04/25 10:38:02;;;;;;;2.07;1.90;;;23.20;57.60;;;;;;4976272;28;1142364;-79
2023/04/25 10:40:31;;;;;;;2.00;1.80;;;23.20;57.60;;;;;;5025065;28;20202;-80
2023/04/25 10:43:33;;;;;;;1.70;1.60;;;23.20;57.60;;;;;;5032398;28;20449;-75
2023/04/25 10:46:01;;;;;;;1.70;1.60;;;23.20;57.50;;;;;;5031917;28;20555;-79
2023/04/25 10:48:32;;;;;;;1.90;1.60;;;23.20;57.40;;;;;;5029155;28;20455;-79
2023/04/25 10:51:09;;;;;;;1.90;1.80;;;23.20;57.30;;;;;;5028632;28;20538;-79
2023/04/25 10:53:37;;;;;;;1.80;1.70;;;23.20;57.30;;;;;;5004303;28;20460;-79
2023/04/25 10:56:12;;;;;;;1.90;1.77;;;23.20;57.40;;;;;;5034323;28;20459;-78
2023/04/25 10:58:45;;;;;;;2.20;2.10;;;23.20;57.40;;;;;;5047533;28;20452;-79
2023/04/25 11:01:14;;;;;;;2.00;1.80;;;23.20;57.40;;;;;;5023244;28;20463;-78
2023/04/25 11:03:45;;;;;;;2.10;1.90;;;23.10;57.40;;;;;;5033191;28;20476;-79
2023/04/25 11:06:23;;;;;;;2.40;2.03;;;23.10;57.50;;;;;;5034179;28;20476;-78
2023/04/25 11:08:52;;;;;;;1.90;1.67;;;23.10;57.60;;;;;;5033739;28;20626;-79
2023/04/25 11:11:21;;;;;;;1.73;1.50;;;23.10;57.70;;;;;;5019998;28;20524;-76
2023/04/25 11:13:50;;;;;;;1.50;1.40;;;23.10;57.70;;;;;;5032812;28;20847;-77
2023/04/25 11:16:18;;;;;;;1.70;1.60;;;23.10;57.70;;;;;;5031874;28;20459;-78
2023/04/25 11:18:58;;;;;;;2.43;1.83;;;23.10;57.70;;;;;;5025598;28;20517;-78
2023/04/25 11:21:27;;;;;;;1.80;1.70;;;23.10;57.70;;;;;;5020084;28;20475;-78
2023/04/25 11:23:57;;;;;;;2.07;1.87;;;23.10;57.70;;;;;;5025679;28;20586;-78
2023/04/25 11:26:26;;;;;;;2.47;2.23;;;23.10;57.80;;;;;;5031861;28;20465;-78
2023/04/25 11:28:59;;;;;;;2.90;1.93;;;23.10;57.70;;;;;;5029633;28;20556;-77
2023/04/25 11:31:27;;;;;;;1.73;1.63;;;23.10;57.80;;;;;;5024407;28;20843;-73
2023/04/25 11:33:58;;;;;;;2.17;1.80;;;23.10;57.80;;;;;;5027653;28;20870;-78
2023/04/25 11:36:27;;;;;;;3.33;1.87;;;23.00;57.70;;;;;;5023959;28;20470;-79
2023/04/25 11:38:55;;;;;;;7.03;2.03;;;23.00;57.80;;;;;;5029721;28;20507;-78
2023/04/25 11:41:23;;;;;;;2.07;1.83;;;23.00;57.90;;;;;;5027539;28;20455;-78
2023/04/25 11:43:54;;;;;;;1.57;1.43;;;23.00;58.00;;;;;;5025028;28;20460;-76
2023/04/25 11:46:23;;;;;;;2.83;2.30;;;23.00;58.10;;;;;;5036600;28;20468;-75
2023/04/25 11:48:52;;;;;;;2.20;2.00;;;23.00;58.20;;;;;;5026662;28;20456;-76
2023/04/25 11:51:22;;;;;;;2.30;1.93;;;23.00;58.20;;;;;;5026425;28;20797;-77
2023/04/25 11:53:50;;;;;;;1.80;1.70;;;23.00;58.30;;;;;;5034044;28;20484;-77
2023/04/25 11:56:18;;;;;;;3.50;1.83;;;23.00;58.30;;;;;;5023557;28;20549;-78
2023/04/25 11:58:57;;;;;;;1.70;1.60;;;23.00;58.40;;;;;;5030942;28;20460;-77
2023/04/25 12:01:30;;;;;;;2.00;1.80;;;23.00;58.30;;;;;;5011172;28;20451;-74
2023/04/25 12:04:12;;;;;;;2.63;2.03;;;23.10;58.30;;;;;;5031445;28;20445;-77
2023/04/25 12:06:46;;;;;;;3.00;2.03;;;23.10;58.30;;;;;;5028739;28;20486;-78
2023/04/25 12:09:17;;;;;;;1.87;1.73;;;23.10;58.20;;;;;;5028360;28;21032;-79
2023/04/25 12:11:46;;;;;;;2.60;2.17;;;23.10;58.20;;;;;;5024915;28;20510;-78
2023/04/25 12:14:23;;;;;;;2.10;1.73;;;23.10;58.10;;;;;;5013334;28;20465;-78
2023/04/25 12:16:52;;;;;;;1.53;1.40;;;23.20;58.10;;;;;;5026262;28;20468;-79
2023/04/25 12:19:21;;;;;;;2.43;1.90;;;23.20;58.10;;;;;;5031780;28;20456;-78
2023/04/25 12:21:52;;;;;;;1.97;1.60;;;23.20;58.00;;;;;;5028350;28;20456;-78
2023/04/25 12:24:27;;;;;;;6.03;1.77;;;23.20;58.00;;;;;;5025708;28;20477;-81
2023/04/25 12:27:01;;;;;;;4.43;1.80;;;23.20;58.10;;;;;;5019436;28;20478;-81
2023/04/25 12:29:32;;;;;;;1.57;1.47;;;23.20;58.40;;;;;;5028849;28;20456;-78
2023/04/25 12:32:16;;;;;;;1.90;1.80;;;23.20;58.50;;;;;;5027773;28;20455;-80
2023/04/25 12:34:44;;;;;;;3.43;1.67;;;23.30;58.50;;;;;;5028328;28;20466;-77
2023/04/25 12:37:14;;;;;;;2.80;1.93;;;23.30;58.40;;;;;;5026919;28;20475;-78
2023/04/25 12:39:43;;;;;;;2.17;1.97;;;23.30;58.50;;;;;;5023900;28;20470;-79
2023/04/25 12:42:11;;;;;;;2.60;1.80;;;23.30;58.50;;;;;;5026594;28;20453;-78
2023/04/25 12:44:40;;;;;;;1.50;1.40;;;23.40;58.50;;;;;;5026533;28;20460;-79
2023/04/25 12:47:09;;;;;;;3.07;1.93;;;23.40;58.60;;;;;;5027210;28;20481;-80
2023/04/25 12:49:38;;;;;;;1.87;1.70;;;23.40;58.70;;;;;;5025038;28;20551;-73
2023/04/25 12:52:06;;;;;;;2.47;1.77;;;23.40;58.70;;;;;;5018959;28;20563;-80
2023/04/25 12:54:37;;;;;;;3.23;1.67;;;23.50;58.70;;;;;;5031568;28;20934;-78
2023/04/25 12:57:06;;;;;;;1.87;1.47;;;23.50;58.70;;;;;;5015405;28;21063;-81
2023/04/25 12:59:34;;;;;;;1.40;1.30;;;23.50;58.70;;;;;;5024942;28;20455;-75
2023/04/25 13:02:03;;;;;;;1.80;1.67;;;23.50;58.70;;;;;;5025418;28;20526;-82
2023/04/25 13:04:31;;;;;;;2.63;1.80;;;23.60;58.80;;;;;;5024996;28;20478;-78
2023/04/25 13:06:59;;;;;;;2.00;1.60;;;23.60;58.80;;;;;;5023240;28;20829;-81
2023/04/25 13:09:28;;;;;;;2.03;1.83;;;23.70;58.80;;;;;;5027848;28;20488;-83
2023/04/25 13:11:58;;;;;;;6.27;2.40;;;23.70;58.70;;;;;;5028096;28;20458;-78
2023/04/25 13:14:27;;;;;;;2.77;1.60;;;23.80;58.60;;;;;;5023614;28;20461;-77
2023/04/25 13:16:56;;;;;;;2.20;1.47;;;23.80;58.60;;;;;;5024347;28;20457;-78